createdAt,value
2017-10-09T00:00:16.805Z,56.1
2017-10-09T00:01:18.237Z,56.2
2017-10-09T00:02:19.335Z,56
2017-10-09T00:03:21.461Z,56.2
2017-10-09T00:04:23.252Z,56.3
2017-10-09T00:05:24.688Z,56.2
2017-10-09T00:06:25.815Z,56.2
2017-10-09T00:07:27.583Z,56.1
2017-10-09T00:08:28.687Z,56.5
2017-10-09T00:09:30.115Z,56.4
2017-10-09T00:10:31.574Z,56.3
2017-10-09T00:11:33.368Z,56.1
2017-10-09T00:12:35.490Z,56.3
2017-10-09T00:13:36.921Z,56.3
2017-10-09T00:14:38.020Z,56.1
2017-10-09T00:15:39.476Z,56.1
2017-10-09T00:16:40.940Z,56.3
2017-10-09T00:17:42.405Z,56.2
2017-10-09T00:18:43.505Z,56
2017-10-09T00:19:45.296Z,55.9
2017-10-09T00:20:47.423Z,56.1
2017-10-09T00:21:48.523Z,56.2
2017-10-09T00:22:50.294Z,56.2
2017-10-09T00:23:52.420Z,56.2
2017-10-09T00:24:53.521Z,56
2017-10-09T00:25:54.949Z,56.1
2017-10-09T00:26:56.059Z,56.4
2017-10-09T00:27:58.209Z,56.2
2017-10-09T00:28:58.971Z,56.2
2017-10-09T00:30:00.739Z,56.2
2017-10-09T00:31:02.868Z,56.1
2017-10-09T00:32:04.300Z,56.2
2017-10-09T00:33:06.117Z,56.1
2017-10-09T00:34:07.885Z,56.1
2017-10-09T00:35:09.323Z,56.2
2017-10-09T00:36:11.448Z,56.4
2017-10-09T00:37:13.234Z,56
2017-10-09T00:38:15.362Z,56.2
2017-10-09T00:39:17.487Z,56.1
2017-10-09T00:40:18.950Z,56.1
2017-10-09T00:41:20.742Z,56.2
2017-10-09T00:42:22.513Z,56.1
2017-10-09T00:43:24.640Z,56
2017-10-09T00:44:26.777Z,56
2017-10-09T00:45:28.578Z,56.1
2017-10-09T00:46:29.995Z,56.1
2017-10-09T00:47:31.464Z,56.2
2017-10-09T00:48:33.256Z,56.3
2017-10-09T00:49:34.357Z,56.1
2017-10-09T00:50:35.795Z,56.1
2017-10-09T00:51:36.896Z,56.1
2017-10-09T00:52:38.688Z,56
2017-10-09T00:53:40.477Z,56.1
2017-10-09T00:54:41.578Z,56.1
2017-10-09T00:55:43.370Z,56
2017-10-09T00:56:44.806Z,56
2017-10-09T00:57:46.937Z,56
2017-10-09T00:58:48.724Z,55.9
2017-10-09T00:59:50.512Z,56.1
2017-10-09T01:00:52.321Z,56
2017-10-09T01:01:54.112Z,56
2017-10-09T01:02:54.878Z,56.3
2017-10-09T01:03:56.670Z,56.1
2017-10-09T01:04:58.102Z,56.1
2017-10-09T01:05:59.557Z,56.1
2017-10-09T01:07:00.658Z,56.1
2017-10-09T01:08:02.784Z,56.1
2017-10-09T01:09:04.910Z,56.3
2017-10-09T01:10:06.705Z,56.2
2017-10-09T01:11:08.140Z,56
2017-10-09T01:12:10.268Z,56.1
2017-10-09T01:13:12.395Z,56.1
2017-10-09T01:14:13.856Z,56.2
2017-10-09T01:15:15.981Z,56.1
2017-10-09T01:16:17.772Z,56.1
2017-10-09T01:17:19.566Z,56.2
2017-10-09T01:18:20.667Z,56
2017-10-09T01:19:22.459Z,56
2017-10-09T01:20:23.224Z,55.9
2017-10-09T01:21:24.659Z,56.1
2017-10-09T01:22:26.786Z,56
2017-10-09T01:23:28.579Z,56.1
2017-10-09T01:24:29.702Z,56.1
2017-10-09T01:25:30.803Z,56.3
2017-10-09T01:26:32.596Z,56.2
2017-10-09T01:27:34.391Z,56.1
2017-10-09T01:28:36.517Z,56.2
2017-10-09T01:29:38.303Z,56
2017-10-09T01:30:40.430Z,56.2
2017-10-09T01:31:41.532Z,56.2
2017-10-09T01:32:43.659Z,56.1
2017-10-09T01:33:45.092Z,56.1
2017-10-09T01:34:46.529Z,56.1
2017-10-09T01:35:48.653Z,55.9
2017-10-09T01:36:50.089Z,56.2
2017-10-09T01:37:51.189Z,55.9
2017-10-09T01:38:52.643Z,56
2017-10-09T01:39:54.767Z,56.2
2017-10-09T01:40:56.894Z,56.1
2017-10-09T01:41:58.686Z,56
2017-10-09T01:43:00.457Z,56
2017-10-09T01:44:02.582Z,56.1
2017-10-09T01:45:04.039Z,56
2017-10-09T01:46:06.165Z,55.9
2017-10-09T01:47:07.603Z,56
2017-10-09T01:48:09.392Z,55.9
2017-10-09T01:49:11.516Z,56.1
2017-10-09T01:50:13.643Z,55.9
2017-10-09T01:51:15.769Z,56.1
2017-10-09T01:52:17.538Z,55.8
2017-10-09T01:53:19.666Z,55.9
2017-10-09T01:54:21.439Z,56.1
2017-10-09T01:55:22.875Z,56.2
2017-10-09T01:56:24.329Z,56.1
2017-10-09T01:57:26.119Z,56.1
2017-10-09T01:58:28.247Z,56
2017-10-09T01:59:29.680Z,56.1
2017-10-09T02:00:31.807Z,55.9
2017-10-09T02:01:33.599Z,56.1
2017-10-09T02:02:35.390Z,55.8
2017-10-09T02:03:37.182Z,56
2017-10-09T02:04:39.308Z,55.9
2017-10-09T02:05:40.776Z,55.8
2017-10-09T02:06:42.566Z,56.1
2017-10-09T02:07:44.692Z,56.2
2017-10-09T02:08:46.485Z,55.9
2017-10-09T02:09:48.614Z,56.4
2017-10-09T02:10:50.048Z,56.4
2017-10-09T02:11:52.176Z,56
2017-10-09T02:12:53.636Z,55.9
2017-10-09T02:13:55.423Z,56
2017-10-09T02:14:56.858Z,56.3
2017-10-09T02:15:58.631Z,55.8
2017-10-09T02:16:59.730Z,56.1
2017-10-09T02:18:01.500Z,56
2017-10-09T02:19:02.958Z,55.8
2017-10-09T02:20:04.415Z,55.9
2017-10-09T02:21:05.861Z,56
2017-10-09T02:22:07.654Z,55.8
2017-10-09T02:23:09.109Z,55.8
2017-10-09T02:24:10.901Z,55.8
2017-10-09T02:25:13.026Z,56.2
2017-10-09T02:26:14.482Z,56.5
2017-10-09T02:27:15.583Z,56.3
2017-10-09T02:28:17.372Z,56.2
2017-10-09T02:29:19.162Z,56.4
2017-10-09T02:30:20.284Z,56.1
2017-10-09T02:31:22.073Z,56.1
2017-10-09T02:32:23.872Z,55.9
2017-10-09T02:33:25.664Z,55.8
2017-10-09T02:34:27.791Z,56.1
2017-10-09T02:35:29.243Z,55.9
2017-10-09T02:36:31.036Z,55.8
2017-10-09T02:37:32.829Z,55.8
2017-10-09T02:38:34.964Z,55.8
2017-10-09T02:39:36.399Z,56
2017-10-09T02:40:37.852Z,56
2017-10-09T02:41:39.624Z,56
2017-10-09T02:42:41.749Z,56.1
2017-10-09T02:43:43.876Z,56.1
2017-10-09T02:44:45.666Z,55.8
2017-10-09T02:45:47.793Z,55.8
2017-10-09T02:46:49.249Z,56
2017-10-09T02:47:50.707Z,55.9
2017-10-09T02:48:52.496Z,55.9
2017-10-09T02:49:54.291Z,55.9
2017-10-09T02:50:56.082Z,55.9
2017-10-09T02:51:57.539Z,55.9
2017-10-09T02:52:59.316Z,55.9
2017-10-09T02:54:00.409Z,55.9
2017-10-09T02:55:01.176Z,56.1
2017-10-09T02:56:02.975Z,55.9
2017-10-09T02:57:04.770Z,55.7
2017-10-09T02:58:06.207Z,55.9
2017-10-09T02:59:07.644Z,55.9
2017-10-09T03:00:09.471Z,55.9
2017-10-09T03:01:10.907Z,56
2017-10-09T03:02:12.698Z,55.9
2017-10-09T03:03:14.825Z,55.9
2017-10-09T03:04:16.286Z,56
2017-10-09T03:05:17.724Z,55.6
2017-10-09T03:06:18.845Z,55.9
2017-10-09T03:07:19.609Z,56
2017-10-09T03:08:21.735Z,56
2017-10-09T03:09:23.193Z,55.9
2017-10-09T03:10:25.318Z,55.6
2017-10-09T03:11:27.445Z,55.9
2017-10-09T03:12:29.571Z,55.9
2017-10-09T03:13:31.008Z,55.9
2017-10-09T03:14:32.108Z,55.9
2017-10-09T03:15:33.232Z,56.1
2017-10-09T03:16:34.669Z,56
2017-10-09T03:17:35.770Z,56
2017-10-09T03:18:37.893Z,56
2017-10-09T03:19:40.018Z,55.8
2017-10-09T03:20:42.141Z,56.3
2017-10-09T03:21:43.577Z,55.9
2017-10-09T03:22:45.383Z,56.1
2017-10-09T03:23:47.161Z,56
2017-10-09T03:24:48.597Z,56
2017-10-09T03:25:50.037Z,55.9
2017-10-09T03:26:52.161Z,56
2017-10-09T03:27:53.956Z,55.8
2017-10-09T03:28:55.745Z,55.8
2017-10-09T03:29:57.537Z,56
2017-10-09T03:30:59.305Z,55.9
2017-10-09T03:32:00.406Z,55.9
2017-10-09T03:33:02.532Z,55.8
2017-10-09T03:34:04.658Z,55.9
2017-10-09T03:35:06.090Z,56
2017-10-09T03:36:08.220Z,56
2017-10-09T03:37:10.345Z,56
2017-10-09T03:38:11.782Z,55.9
2017-10-09T03:39:13.911Z,56.1
2017-10-09T03:40:15.703Z,56.3
2017-10-09T03:41:17.830Z,56.1
2017-10-09T03:42:19.600Z,55.9
2017-10-09T03:43:21.390Z,55.9
2017-10-09T03:44:23.163Z,55.9
2017-10-09T03:45:24.931Z,55.9
2017-10-09T03:46:26.735Z,55.9
2017-10-09T03:47:28.191Z,56.4
2017-10-09T03:48:30.318Z,55.9
2017-10-09T03:49:32.445Z,55.9
2017-10-09T03:50:33.903Z,55.9
2017-10-09T03:51:35.673Z,56.3
2017-10-09T03:52:37.797Z,55.9
2017-10-09T03:53:39.573Z,55.9
2017-10-09T03:54:41.701Z,55.9
2017-10-09T03:55:43.158Z,56
2017-10-09T03:56:44.950Z,56
2017-10-09T03:57:46.743Z,56
2017-10-09T03:58:48.869Z,56
2017-10-09T03:59:49.966Z,55.9
2017-10-09T04:00:52.093Z,56.2
2017-10-09T04:01:53.884Z,55.8
2017-10-09T04:02:54.991Z,55.8
2017-10-09T04:03:57.117Z,56
2017-10-09T04:04:58.910Z,56
2017-10-09T04:06:00.705Z,55.9
2017-10-09T04:07:02.163Z,55.8
2017-10-09T04:08:03.953Z,55.9
2017-10-09T04:09:05.410Z,55.9
2017-10-09T04:10:07.533Z,55.9
2017-10-09T04:11:09.664Z,55.9
2017-10-09T04:12:11.128Z,56
2017-10-09T04:13:12.563Z,55.9
2017-10-09T04:14:14.690Z,55.9
2017-10-09T04:15:16.462Z,55.8
2017-10-09T04:16:18.251Z,55.9
2017-10-09T04:17:19.685Z,55.9
2017-10-09T04:18:21.812Z,55.9
2017-10-09T04:19:23.604Z,55.9
2017-10-09T04:20:24.701Z,55.8
2017-10-09T04:21:26.489Z,55.8
2017-10-09T04:22:27.258Z,55.9
2017-10-09T04:23:29.386Z,55.9
2017-10-09T04:24:30.848Z,55.9
2017-10-09T04:25:32.283Z,56.1
2017-10-09T04:26:34.074Z,56.1
2017-10-09T04:27:36.204Z,55.9
2017-10-09T04:28:36.969Z,55.8
2017-10-09T04:29:39.097Z,55.8
2017-10-09T04:30:40.552Z,55.8
2017-10-09T04:31:42.351Z,56.1
2017-10-09T04:32:44.140Z,55.9
2017-10-09T04:33:45.930Z,55.8
2017-10-09T04:34:47.374Z,55.9
2017-10-09T04:35:48.499Z,56
2017-10-09T04:36:50.289Z,55.9
2017-10-09T04:37:52.080Z,55.8
2017-10-09T04:38:53.182Z,55.8
2017-10-09T04:39:54.978Z,55.9
2017-10-09T04:40:56.783Z,56
2017-10-09T04:41:58.225Z,55.9
2017-10-09T04:42:59.659Z,56
2017-10-09T04:44:01.117Z,56
2017-10-09T04:45:03.245Z,55.8
2017-10-09T04:46:05.035Z,56.3
2017-10-09T04:47:06.496Z,56
2017-10-09T04:48:08.621Z,55.8
2017-10-09T04:49:10.750Z,56
2017-10-09T04:50:12.522Z,56.1
2017-10-09T04:51:13.977Z,55.9
2017-10-09T04:52:16.104Z,56.1
2017-10-09T04:53:17.562Z,56.2
2017-10-09T04:54:18.998Z,56
2017-10-09T04:55:20.798Z,55.9
2017-10-09T04:56:22.919Z,56
2017-10-09T04:57:24.707Z,56.5
2017-10-09T04:58:26.497Z,55.9
2017-10-09T04:59:27.603Z,55.9
2017-10-09T05:00:28.718Z,55.9
2017-10-09T05:01:30.176Z,55.8
2017-10-09T05:02:31.277Z,55.9
2017-10-09T05:03:33.067Z,56.1
2017-10-09T05:04:35.192Z,55.8
2017-10-09T05:05:36.628Z,56.1
2017-10-09T05:06:38.424Z,56.3
2017-10-09T05:07:40.214Z,56.1
2017-10-09T05:08:42.342Z,56
2017-10-09T05:09:44.115Z,56
2017-10-09T05:10:45.906Z,55.9
2017-10-09T05:11:47.697Z,56.1
2017-10-09T05:12:49.132Z,55.9
2017-10-09T05:13:50.926Z,55.9
2017-10-09T05:14:52.383Z,56.2
2017-10-09T05:15:54.175Z,56
2017-10-09T05:16:55.611Z,56.3
2017-10-09T05:17:57.739Z,56
2017-10-09T05:18:58.840Z,56.1
2017-10-09T05:19:59.939Z,56
2017-10-09T05:21:01.398Z,55.9
2017-10-09T05:22:03.164Z,56.2
2017-10-09T05:23:04.285Z,55.9
2017-10-09T05:24:06.058Z,55.8
2017-10-09T05:25:07.514Z,56.1
2017-10-09T05:26:09.303Z,56.2
2017-10-09T05:27:11.095Z,55.8
2017-10-09T05:28:12.530Z,55.8
2017-10-09T05:29:14.337Z,56.2
2017-10-09T05:30:16.126Z,56
2017-10-09T05:31:17.894Z,56
2017-10-09T05:32:19.666Z,55.8
2017-10-09T05:33:21.100Z,55.8
2017-10-09T05:34:23.226Z,56.1
2017-10-09T05:35:24.667Z,56
2017-10-09T05:36:26.128Z,56
2017-10-09T05:37:28.258Z,55.9
2017-10-09T05:38:29.716Z,56.2
2017-10-09T05:39:31.848Z,55.8
2017-10-09T05:40:33.640Z,56.2
2017-10-09T05:41:35.432Z,55.9
2017-10-09T05:42:37.213Z,56.1
2017-10-09T05:43:39.007Z,56.1
2017-10-09T05:44:40.476Z,55.9
2017-10-09T05:45:42.602Z,55.9
2017-10-09T05:46:44.058Z,55.9
2017-10-09T05:47:46.183Z,55.8
2017-10-09T05:48:48.308Z,56
2017-10-09T05:49:49.742Z,56
2017-10-09T05:50:51.536Z,55.9
2017-10-09T05:51:53.663Z,56.1
2017-10-09T05:52:55.790Z,56.1
2017-10-09T05:53:57.565Z,55.9
2017-10-09T05:54:59.000Z,55.9
2017-10-09T05:56:00.438Z,55.8
2017-10-09T05:57:01.897Z,56.1
2017-10-09T05:58:04.027Z,55.9
2017-10-09T05:59:05.130Z,55.9
2017-10-09T06:00:06.927Z,55.8
2017-10-09T06:01:08.382Z,55.8
2017-10-09T06:02:09.508Z,56
2017-10-09T06:03:10.965Z,56.1
2017-10-09T06:04:13.092Z,56.1
2017-10-09T06:05:15.217Z,55.8
2017-10-09T06:06:17.347Z,55.9
2017-10-09T06:07:18.800Z,56
2017-10-09T06:08:20.576Z,56
2017-10-09T06:09:22.012Z,55.8
2017-10-09T06:10:24.138Z,55.9
2017-10-09T06:11:25.929Z,56.2
2017-10-09T06:12:27.033Z,56.1
2017-10-09T06:13:28.467Z,55.8
2017-10-09T06:14:30.597Z,55.9
2017-10-09T06:15:32.727Z,56.1
2017-10-09T06:16:34.166Z,55.9
2017-10-09T06:17:35.266Z,55.9
2017-10-09T06:18:37.060Z,56.1
2017-10-09T06:19:38.852Z,56.4
2017-10-09T06:20:40.979Z,56.1
2017-10-09T06:21:43.108Z,55.8
2017-10-09T06:22:44.548Z,56.1
2017-10-09T06:23:46.346Z,56
2017-10-09T06:24:47.779Z,56
2017-10-09T06:25:49.258Z,55.9
2017-10-09T06:26:51.392Z,56
2017-10-09T06:27:53.161Z,56
2017-10-09T06:28:54.287Z,55.8
2017-10-09T06:29:55.724Z,56.2
2017-10-09T06:30:57.500Z,55.9
2017-10-09T06:31:58.931Z,56
2017-10-09T06:33:01.056Z,56
2017-10-09T06:34:03.284Z,55.9
2017-10-09T06:35:05.073Z,56.1
2017-10-09T06:36:06.881Z,56
2017-10-09T06:37:08.675Z,55.9
2017-10-09T06:38:10.135Z,55.9
2017-10-09T06:39:11.570Z,55.6
2017-10-09T06:40:12.673Z,56
2017-10-09T06:41:14.465Z,55.9
2017-10-09T06:42:15.565Z,55.6
2017-10-09T06:43:17.002Z,55.9
2017-10-09T06:44:18.795Z,55.6
2017-10-09T06:45:20.922Z,55.8
2017-10-09T06:46:22.714Z,56.2
2017-10-09T06:47:24.148Z,55.9
2017-10-09T06:48:26.274Z,56.2
2017-10-09T06:49:27.708Z,55.8
2017-10-09T06:50:29.143Z,55.9
2017-10-09T06:51:30.919Z,55.9
2017-10-09T06:52:33.048Z,56
2017-10-09T06:53:34.503Z,56
2017-10-09T06:54:35.657Z,55.8
2017-10-09T06:55:37.782Z,55.8
2017-10-09T06:56:39.218Z,56
2017-10-09T06:57:40.675Z,55.7
2017-10-09T06:58:42.472Z,56
2017-10-09T06:59:44.262Z,56.1
2017-10-09T07:00:45.718Z,55.9
2017-10-09T07:01:47.841Z,55.8
2017-10-09T07:02:49.634Z,55.9
2017-10-09T07:03:51.429Z,55.6
2017-10-09T07:04:52.626Z,55.9
2017-10-09T07:05:54.082Z,55.7
2017-10-09T07:06:55.874Z,55.9
2017-10-09T07:07:58.001Z,55.7
2017-10-09T07:08:59.775Z,56.1
2017-10-09T07:10:01.543Z,55.7
2017-10-09T07:11:02.650Z,56
2017-10-09T07:12:04.435Z,55.6
2017-10-09T07:13:05.558Z,55.6
2017-10-09T07:14:07.351Z,55.9
2017-10-09T07:15:08.454Z,55.9
2017-10-09T07:16:09.894Z,55.7
2017-10-09T07:17:10.995Z,55.7
2017-10-09T07:18:12.786Z,55.8
2017-10-09T07:19:14.581Z,55.9
2017-10-09T07:20:16.373Z,56
2017-10-09T07:21:18.498Z,55.9
2017-10-09T07:22:19.604Z,55.6
2017-10-09T07:23:21.064Z,55.7
2017-10-09T07:24:22.533Z,55.9
2017-10-09T07:25:24.656Z,55.9
2017-10-09T07:26:26.452Z,55.9
2017-10-09T07:27:28.247Z,55.5
2017-10-09T07:28:30.023Z,55.7
2017-10-09T07:29:31.812Z,55.6
2017-10-09T07:30:33.603Z,55.9
2017-10-09T07:31:35.038Z,56
2017-10-09T07:32:37.166Z,56.1
2017-10-09T07:33:39.295Z,55.9
2017-10-09T07:34:41.069Z,55.8
2017-10-09T07:35:42.174Z,56
2017-10-09T07:36:43.275Z,55.7
2017-10-09T07:37:44.708Z,55.9
2017-10-09T07:38:46.504Z,55.9
2017-10-09T07:39:48.293Z,56.1
2017-10-09T07:40:49.748Z,55.8
2017-10-09T07:41:51.210Z,55.6
2017-10-09T07:42:52.671Z,55.6
2017-10-09T07:43:54.470Z,55.6
2017-10-09T07:44:56.264Z,55.7
2017-10-09T07:45:57.698Z,55.6
2017-10-09T07:46:59.825Z,55.5
2017-10-09T07:48:01.616Z,55.6
2017-10-09T07:49:03.387Z,55.7
2017-10-09T07:50:04.828Z,55.8
2017-10-09T07:51:07.052Z,56
2017-10-09T07:52:08.514Z,55.5
2017-10-09T07:53:09.951Z,55.6
2017-10-09T07:54:12.084Z,55.5
2017-10-09T07:55:13.877Z,55.6
2017-10-09T07:56:15.669Z,55.6
2017-10-09T07:57:17.131Z,55.6
2017-10-09T07:58:18.571Z,55.5
2017-10-09T07:59:20.025Z,55.7
2017-10-09T08:00:21.820Z,55.7
2017-10-09T08:01:22.923Z,55.9
2017-10-09T08:02:24.701Z,55.3
2017-10-09T08:03:26.824Z,55.6
2017-10-09T08:04:28.618Z,55.7
2017-10-09T08:05:30.092Z,55.6
2017-10-09T08:06:31.883Z,55.8
2017-10-09T08:07:33.674Z,55.2
2017-10-09T08:08:35.444Z,55.4
2017-10-09T08:09:36.886Z,55.3
2017-10-09T08:10:38.340Z,55.8
2017-10-09T08:11:39.779Z,55.8
2017-10-09T08:12:41.573Z,55.2
2017-10-09T08:13:43.367Z,55.6
2017-10-09T08:14:45.494Z,55.3
2017-10-09T08:15:47.625Z,55.2
2017-10-09T08:16:49.080Z,55.6
2017-10-09T08:17:50.878Z,55.3
2017-10-09T08:18:52.675Z,55.3
2017-10-09T08:19:53.780Z,55.9
2017-10-09T08:20:55.555Z,55.8
2017-10-09T08:21:57.684Z,55.3
2017-10-09T08:22:59.141Z,55.4
2017-10-09T08:24:00.911Z,55.4
2017-10-09T08:25:02.376Z,55.3
2017-10-09T08:26:04.171Z,55.2
2017-10-09T08:27:06.301Z,55.3
2017-10-09T08:28:08.089Z,55.4
2017-10-09T08:29:09.863Z,55.3
2017-10-09T08:30:11.635Z,55.3
2017-10-09T08:31:13.435Z,55.3
2017-10-09T08:32:14.892Z,55.5
2017-10-09T08:33:16.685Z,55.7
2017-10-09T08:34:18.148Z,55.2
2017-10-09T08:35:19.587Z,54.9
2017-10-09T08:36:21.377Z,55.4
2017-10-09T08:37:23.512Z,55
2017-10-09T08:38:24.946Z,54.8
2017-10-09T08:39:26.736Z,55.1
2017-10-09T08:40:28.526Z,55.2
2017-10-09T08:41:30.322Z,54.9
2017-10-09T08:42:31.428Z,54.9
2017-10-09T08:43:32.864Z,55
2017-10-09T08:44:34.660Z,55
2017-10-09T08:45:36.439Z,55.2
2017-10-09T08:46:38.235Z,55.1
2017-10-09T08:47:40.080Z,55.4
2017-10-09T08:48:42.208Z,55
2017-10-09T08:49:43.666Z,54.9
2017-10-09T08:50:45.128Z,55.3
2017-10-09T08:51:46.926Z,55.1
2017-10-09T08:52:48.361Z,55
2017-10-09T08:53:50.156Z,54.9
2017-10-09T08:54:51.256Z,55.3
2017-10-09T08:55:53.388Z,54.8
2017-10-09T08:56:55.158Z,54.8
2017-10-09T08:57:56.365Z,55
2017-10-09T08:58:58.493Z,54.6
2017-10-09T09:00:00.623Z,54.7
2017-10-09T09:01:02.417Z,54.7
2017-10-09T09:02:04.212Z,54.7
2017-10-09T09:03:05.316Z,54.7
2017-10-09T09:04:07.105Z,54.7
2017-10-09T09:05:08.213Z,55
2017-10-09T09:06:09.985Z,55.1
2017-10-09T09:07:11.775Z,55
2017-10-09T09:08:13.907Z,55.7
2017-10-09T09:09:15.697Z,55.1
2017-10-09T09:10:17.156Z,55
2017-10-09T09:11:18.260Z,54.8
2017-10-09T09:12:19.361Z,54.8
2017-10-09T09:13:20.462Z,54.9
2017-10-09T09:14:22.253Z,55.2
2017-10-09T09:15:24.050Z,54.8
2017-10-09T09:16:25.845Z,54.8
2017-10-09T09:17:27.644Z,55
2017-10-09T09:18:28.765Z,54.9
2017-10-09T09:19:30.562Z,54.5
2017-10-09T09:20:32.015Z,55.1
2017-10-09T09:21:34.147Z,54.6
2017-10-09T09:22:35.614Z,55
2017-10-09T09:23:37.073Z,54.6
2017-10-09T09:24:38.875Z,55
2017-10-09T09:25:40.316Z,55
2017-10-09T09:26:41.765Z,54.5
2017-10-09T09:27:43.561Z,55
2017-10-09T09:28:45.020Z,55
2017-10-09T09:29:46.812Z,54.8
2017-10-09T09:30:48.589Z,54.5
2017-10-09T09:31:50.356Z,55.1
2017-10-09T09:32:51.818Z,54.5
2017-10-09T09:33:53.614Z,55.3
2017-10-09T09:34:55.407Z,54.6
2017-10-09T09:35:56.866Z,55.2
2017-10-09T09:36:58.992Z,55
2017-10-09T09:38:01.122Z,55.1
2017-10-09T09:39:03.259Z,54.5
2017-10-09T09:40:05.048Z,54.6
2017-10-09T09:41:06.844Z,54.5
2017-10-09T09:42:08.635Z,54.5
2017-10-09T09:43:10.763Z,54.7
2017-10-09T09:44:12.218Z,54.6
2017-10-09T09:45:14.346Z,54.6
2017-10-09T09:46:16.472Z,54.5
2017-10-09T09:47:18.268Z,55
2017-10-09T09:48:19.701Z,54.7
2017-10-09T09:49:21.162Z,54.5
2017-10-09T09:50:22.619Z,54.6
2017-10-09T09:51:24.746Z,54.5
2017-10-09T09:52:26.543Z,54.5
2017-10-09T09:53:28.387Z,54.5
2017-10-09T09:54:30.513Z,54.5
2017-10-09T09:55:31.976Z,54.7
2017-10-09T09:56:33.412Z,54.6
2017-10-09T09:57:34.517Z,54.5
2017-10-09T09:58:35.670Z,54.6
2017-10-09T09:59:37.442Z,54.5
2017-10-09T10:00:39.570Z,54.5
2017-10-09T10:01:41.362Z,54.6
2017-10-09T10:02:43.161Z,54.8
2017-10-09T10:03:44.957Z,54.6
2017-10-09T10:04:46.057Z,54.8
2017-10-09T10:05:48.187Z,54.8
2017-10-09T10:06:49.980Z,54.7
2017-10-09T10:07:51.437Z,54.4
2017-10-09T10:08:53.229Z,54.7
2017-10-09T10:09:54.688Z,54.4
2017-10-09T10:10:56.815Z,54.5
2017-10-09T10:11:57.940Z,54.5
2017-10-09T10:12:59.737Z,54.4
2017-10-09T10:14:01.524Z,54.4
2017-10-09T10:15:03.295Z,54.5
2017-10-09T10:16:04.395Z,54.4
2017-10-09T10:17:06.522Z,54.5
2017-10-09T10:18:08.320Z,54.4
2017-10-09T10:19:09.445Z,54.4
2017-10-09T10:20:11.238Z,54.1
2017-10-09T10:21:13.363Z,54.3
2017-10-09T10:22:15.491Z,54.4
2017-10-09T10:23:17.289Z,54.2
2017-10-09T10:24:19.083Z,54.2
2017-10-09T10:25:20.183Z,54.3
2017-10-09T10:26:21.622Z,54.3
2017-10-09T10:27:23.416Z,54.3
2017-10-09T10:28:25.544Z,54.1
2017-10-09T10:29:27.003Z,54
2017-10-09T10:30:28.786Z,54.2
2017-10-09T10:31:30.909Z,54.2
2017-10-09T10:32:31.676Z,54
2017-10-09T10:33:33.114Z,54.1
2017-10-09T10:34:35.241Z,54.2
2017-10-09T10:35:37.016Z,54.3
2017-10-09T10:36:39.147Z,54.3
2017-10-09T10:37:40.943Z,54.6
2017-10-09T10:38:42.378Z,54.2
2017-10-09T10:39:44.152Z,54.2
2017-10-09T10:40:45.949Z,54.1
2017-10-09T10:41:47.048Z,54.4
2017-10-09T10:42:48.508Z,54.2
2017-10-09T10:43:50.631Z,54.4
2017-10-09T10:44:52.092Z,54.4
2017-10-09T10:45:53.552Z,54.2
2017-10-09T10:46:55.348Z,54.3
2017-10-09T10:47:56.785Z,54.2
2017-10-09T10:48:57.554Z,54.4
2017-10-09T10:49:59.680Z,54.5
2017-10-09T10:51:00.452Z,54.3
2017-10-09T10:52:02.247Z,54.2
2017-10-09T10:53:04.379Z,54.5
2017-10-09T10:54:06.174Z,54.2
2017-10-09T10:55:07.967Z,54.1
2017-10-09T10:56:09.430Z,54.3
2017-10-09T10:57:10.867Z,54.3
2017-10-09T10:58:12.664Z,54.1
2017-10-09T10:59:14.119Z,53.9
2017-10-09T11:00:15.629Z,54
2017-10-09T11:01:17.402Z,53.9
2017-10-09T11:02:19.197Z,54
2017-10-09T11:03:20.992Z,54
2017-10-09T11:04:22.787Z,54
2017-10-09T11:05:24.631Z,54
2017-10-09T11:06:26.425Z,53.9
2017-10-09T11:07:28.197Z,54
2017-10-09T11:08:29.993Z,54
2017-10-09T11:09:31.785Z,54.1
2017-10-09T11:10:33.579Z,53.8
2017-10-09T11:11:35.350Z,53.7
2017-10-09T11:12:37.146Z,53.7
2017-10-09T11:13:38.955Z,53.8
2017-10-09T11:14:40.428Z,53.8
2017-10-09T11:15:41.889Z,53.9
2017-10-09T11:16:44.018Z,53.8
2017-10-09T11:17:45.810Z,53.9
2017-10-09T11:18:47.606Z,53.9
2017-10-09T11:19:49.378Z,53.8
2017-10-09T11:20:50.891Z,54
2017-10-09T11:21:53.015Z,54.1
2017-10-09T11:22:54.471Z,53.9
2017-10-09T11:23:56.266Z,54.3
2017-10-09T11:24:58.060Z,53.9
2017-10-09T11:25:59.168Z,53.8
2017-10-09T11:27:00.957Z,53.8
2017-10-09T11:28:02.059Z,53.7
2017-10-09T11:29:04.188Z,53.7
2017-10-09T11:30:05.983Z,54.1
2017-10-09T11:31:07.777Z,54.3
2017-10-09T11:32:09.216Z,53.7
2017-10-09T11:33:11.009Z,53.7
2017-10-09T11:34:13.136Z,54.1
2017-10-09T11:35:14.929Z,53.8
2017-10-09T11:36:16.391Z,53.9
2017-10-09T11:37:17.852Z,53.9
2017-10-09T11:38:19.621Z,53.8
2017-10-09T11:39:20.393Z,53.9
2017-10-09T11:40:22.186Z,53.9
2017-10-09T11:41:23.287Z,53.9
2017-10-09T11:42:24.726Z,54.2
2017-10-09T11:43:26.165Z,54.5
2017-10-09T11:44:28.293Z,53.9
2017-10-09T11:45:29.753Z,54.2
2017-10-09T11:46:31.882Z,54.1
2017-10-09T11:47:33.345Z,54
2017-10-09T11:48:35.471Z,54
2017-10-09T11:49:37.264Z,54.4
2017-10-09T11:50:39.056Z,54
2017-10-09T11:51:41.234Z,54
2017-10-09T11:52:42.673Z,54
2017-10-09T11:53:44.803Z,54
2017-10-09T11:54:46.237Z,53.9
2017-10-09T11:55:48.007Z,54
2017-10-09T11:56:50.140Z,54.1
2017-10-09T11:57:51.596Z,54.1
2017-10-09T11:58:52.699Z,54
2017-10-09T11:59:54.133Z,54.1
2017-10-09T12:00:55.591Z,54.2
2017-10-09T12:01:57.388Z,54.1
2017-10-09T12:02:59.515Z,54
2017-10-09T12:04:01.648Z,54.2
2017-10-09T12:05:03.774Z,54
2017-10-09T12:06:05.210Z,53.9
2017-10-09T12:07:06.703Z,54
2017-10-09T12:08:08.832Z,54.1
2017-10-09T12:09:10.962Z,54.1
2017-10-09T12:10:13.093Z,54.1
2017-10-09T12:11:14.532Z,53.9
2017-10-09T12:12:15.992Z,54.4
2017-10-09T12:13:17.778Z,54
2017-10-09T12:14:19.549Z,54
2017-10-09T12:15:20.993Z,54
2017-10-09T12:16:23.118Z,54.3
2017-10-09T12:17:25.246Z,54
2017-10-09T12:18:26.346Z,54
2017-10-09T12:19:28.139Z,54
2017-10-09T12:20:30.265Z,54
2017-10-09T12:21:32.389Z,54
2017-10-09T12:22:34.519Z,54.1
2017-10-09T12:23:36.294Z,54.4
2017-10-09T12:24:37.730Z,54.3
2017-10-09T12:25:39.859Z,54
2017-10-09T12:26:41.649Z,54.1
2017-10-09T12:27:43.088Z,54.2
2017-10-09T12:28:44.878Z,54
2017-10-09T12:29:46.343Z,54.2
2017-10-09T12:30:48.114Z,54.3
2017-10-09T12:31:49.236Z,54.2
2017-10-09T12:32:51.009Z,54.1
2017-10-09T12:33:52.806Z,54.3
2017-10-09T12:34:54.262Z,54.2
2017-10-09T12:35:56.054Z,54.1
2017-10-09T12:36:57.518Z,54.1
2017-10-09T12:37:58.960Z,54
2017-10-09T12:39:00.752Z,54
2017-10-09T12:40:02.545Z,53.9
2017-10-09T12:41:04.317Z,54
2017-10-09T12:42:06.445Z,54.1
2017-10-09T12:43:08.573Z,54
2017-10-09T12:44:10.034Z,54.1
2017-10-09T12:45:11.807Z,53.9
2017-10-09T12:46:13.600Z,54.1
2017-10-09T12:47:15.726Z,54.1
2017-10-09T12:48:17.236Z,54.1
2017-10-09T12:49:19.368Z,54.2
2017-10-09T12:50:21.161Z,54.2
2017-10-09T12:51:23.294Z,53.9
2017-10-09T12:52:24.734Z,54.3
2017-10-09T12:53:25.883Z,53.9
2017-10-09T12:54:27.654Z,54.2
2017-10-09T12:55:29.118Z,54.2
2017-10-09T12:56:30.552Z,53.8
2017-10-09T12:57:32.009Z,53.9
2017-10-09T12:58:34.135Z,53.9
2017-10-09T12:59:36.268Z,53.8
2017-10-09T13:00:37.724Z,53.8
2017-10-09T13:01:39.857Z,53.9
2017-10-09T13:02:41.984Z,53.9
2017-10-09T13:03:44.215Z,53.9
2017-10-09T13:04:45.679Z,53.8
2017-10-09T13:05:47.136Z,53.9
2017-10-09T13:06:48.575Z,54.3
2017-10-09T13:07:50.370Z,53.9
2017-10-09T13:08:52.508Z,53.8
2017-10-09T13:09:53.944Z,53.8
2017-10-09T13:10:55.713Z,53.8
2017-10-09T13:11:57.484Z,54
2017-10-09T13:12:59.277Z,54.1
2017-10-09T13:14:00.737Z,53.9
2017-10-09T13:15:02.536Z,53.9
2017-10-09T13:16:03.995Z,53.8
2017-10-09T13:17:05.429Z,54
2017-10-09T13:18:07.556Z,54
2017-10-09T13:19:09.332Z,54
2017-10-09T13:20:11.125Z,54
2017-10-09T13:21:12.928Z,54.3
2017-10-09T13:22:14.721Z,53.9
2017-10-09T13:23:16.536Z,54
2017-10-09T13:24:17.957Z,54.2
2017-10-09T13:25:19.753Z,53.8
2017-10-09T13:26:21.187Z,53.8
2017-10-09T13:27:22.979Z,54.2
2017-10-09T13:28:24.777Z,53.9
2017-10-09T13:29:25.884Z,54
2017-10-09T13:30:27.651Z,54.2
2017-10-09T13:31:29.095Z,54
2017-10-09T13:32:30.894Z,54.1
2017-10-09T13:33:32.328Z,54.2
2017-10-09T13:34:33.452Z,54.3
2017-10-09T13:35:35.244Z,54.3
2017-10-09T13:36:37.039Z,54
2017-10-09T13:37:37.804Z,54.2
2017-10-09T13:38:39.933Z,54.5
2017-10-09T13:39:41.369Z,54.3
2017-10-09T13:40:43.498Z,54.3
2017-10-09T13:41:45.286Z,54.4
2017-10-09T13:42:46.721Z,54.4
2017-10-09T13:43:48.163Z,54.4
2017-10-09T13:44:50.295Z,54.4
2017-10-09T13:45:52.067Z,54.3
2017-10-09T13:46:53.860Z,54.4
2017-10-09T13:47:55.323Z,54.6
2017-10-09T13:48:57.115Z,54.5
2017-10-09T13:49:58.890Z,54.7
2017-10-09T13:50:59.988Z,54.8